createdAt,value
2018-12-20T00:03:25.152Z,27.23
2018-12-20T00:19:38.289Z,22.30
2018-12-20T00:24:48.571Z,15.07
2018-12-20T00:27:14.807Z,18.97
2018-12-20T00:35:01.492Z,22.20
2018-12-20T00:37:20.777Z,22.93
2018-12-20T00:39:40.294Z,19.23
2018-12-20T00:41:55.741Z,18.57
2018-12-20T00:44:14.009Z,29.37
2018-12-20T00:46:29.358Z,16.37
2018-12-20T00:49:07.346Z,24.17
2018-12-20T00:54:36.925Z,32.00
2018-12-20T00:57:22.080Z,26.87
2018-12-20T00:59:45.259Z,25.63
2018-12-20T01:09:37.886Z,34.03
2018-12-20T01:31:00.719Z,33.40
2018-12-20T01:36:08.282Z,40.67
2018-12-20T01:38:15.619Z,39.23
2018-12-20T01:40:27.615Z,50.63
2018-12-20T01:42:36.437Z,53.40
2018-12-20T01:44:53.525Z,54.50
2018-12-20T01:47:04.606Z,40.53
2018-12-20T01:49:17.777Z,47.07
2018-12-20T01:51:29.095Z,63.83
2018-12-20T01:56:53.597Z,53.37
2018-12-20T01:59:03.749Z,52.80
2018-12-20T02:01:16.829Z,52.53
2018-12-20T02:03:25.327Z,64.93
2018-12-20T02:05:31.863Z,65.80
2018-12-20T02:10:04.053Z,66.33
2018-12-20T02:14:40.964Z,57.80
2018-12-20T02:16:55.039Z,61.10
2018-12-20T02:23:26.174Z,66.83
2018-12-20T02:28:39.807Z,57.50
2018-12-20T02:35:43.733Z,55.13
2018-12-20T02:38:04.046Z,51.40
2018-12-20T02:46:22.616Z,48.63
2018-12-20T02:48:32.606Z,48.67
2018-12-20T02:50:41.402Z,49.20
2018-12-20T02:52:54.475Z,47.80
2018-12-20T02:55:06.497Z,47.90
2018-12-20T02:59:37.070Z,38.07
2018-12-20T03:01:46.674Z,43.43
2018-12-20T03:03:53.786Z,42.90
2018-12-20T03:06:02.115Z,33.60
2018-12-20T03:08:10.734Z,38.27
2018-12-20T03:10:16.683Z,38.83
2018-12-20T03:12:23.718Z,36.70
2018-12-20T03:14:30.321Z,36.17
2018-12-20T03:16:40.887Z,39.13
2018-12-20T03:18:55.650Z,35.30
2018-12-20T03:23:44.647Z,32.30
2018-12-20T03:26:10.776Z,39.07
2018-12-20T03:28:49.690Z,30.90
2018-12-20T03:31:08.372Z,29.80
2018-12-20T03:33:34.878Z,37.07
2018-12-20T03:36:07.550Z,29.23
2018-12-20T03:38:39.827Z,31.37
2018-12-20T03:44:19.995Z,28.20
2018-12-20T03:46:36.368Z,29.63
2018-12-20T03:48:48.020Z,26.63
2018-12-20T03:51:04.674Z,22.03
2018-12-20T03:53:20.335Z,26.27
2018-12-20T03:55:38.384Z,27.50
2018-12-20T04:01:01.154Z,23.33
2018-12-20T04:03:30.608Z,29.13
2018-12-20T04:05:54.443Z,27.27
2018-12-20T04:08:21.314Z,25.23
2018-12-20T04:13:25.507Z,25.30
2018-12-20T04:26:08.892Z,22.10
2018-12-20T04:28:26.074Z,20.53
2018-12-20T04:30:39.855Z,30.50
2018-12-20T04:32:59.842Z,15.80
2018-12-20T04:35:26.872Z,20.37
2018-12-20T04:40:43.659Z,21.93
2018-12-20T04:42:57.780Z,23.83
2018-12-20T04:45:16.821Z,25.80
2018-12-20T04:47:37.878Z,21.67
2018-12-20T04:49:59.097Z,20.10
2018-12-20T04:54:45.619Z,19.63
2018-12-20T04:56:54.141Z,19.23
2018-12-20T04:59:13.461Z,17.10
2018-12-20T05:01:21.914Z,21.47
2018-12-20T05:03:50.287Z,19.93
2018-12-20T05:06:06.211Z,16.23
2018-12-20T05:08:21.211Z,20.30
2018-12-20T05:10:40.192Z,22.43
2018-12-20T05:15:02.969Z,19.03
2018-12-20T05:17:11.692Z,19.17
2018-12-20T05:19:21.246Z,15.73
2018-12-20T05:21:42.770Z,16.37
2018-12-20T05:24:00.710Z,19.90
2018-12-20T05:26:33.957Z,19.40
2018-12-20T05:28:57.312Z,18.30
2018-12-20T05:31:24.364Z,19.77
2018-12-20T05:33:30.650Z,15.67
2018-12-20T05:35:52.730Z,15.37
2018-12-20T05:40:30.966Z,19.93
2018-12-20T05:42:39.663Z,16.20
2018-12-20T05:44:50.127Z,26.83
2018-12-20T05:47:01.614Z,20.53
2018-12-20T05:49:09.794Z,18.17
2018-12-20T05:56:54.560Z,24.00
2018-12-20T06:31:36.723Z,22.40
2018-12-20T06:36:58.482Z,22.40
2018-12-20T06:43:23.820Z,26.40
2018-12-20T06:45:35.254Z,24.37
2018-12-20T06:47:47.837Z,28.33
2018-12-20T06:50:01.251Z,25.10
2018-12-20T06:54:39.923Z,21.57
2018-12-20T06:56:47.046Z,23.03
2018-12-20T06:59:17.495Z,19.50
2018-12-20T07:01:28.214Z,20.70
2018-12-20T08:57:19.642Z,8.33
2018-12-20T09:31:36.229Z,4.23
2018-12-20T09:33:56.738Z,5.43
2018-12-20T09:54:51.607Z,6.33
2018-12-20T10:00:03.212Z,7.63
2018-12-20T10:02:29.480Z,19.47
2018-12-20T10:05:20.944Z,6.07
2018-12-20T10:30:43.323Z,15.43
2018-12-20T11:00:41.294Z,10.80
2018-12-20T11:19:38.285Z,19.33
2018-12-20T11:35:18.886Z,6.80
2018-12-20T11:58:59.005Z,4.03
2018-12-20T12:01:03.171Z,4.83
2018-12-20T12:03:06.562Z,8.90
2018-12-20T12:05:09.905Z,7.83
2018-12-20T12:07:17.512Z,9.33
2018-12-20T12:09:22.228Z,8.80
2018-12-20T12:16:27.063Z,7.63
2018-12-20T12:21:07.536Z,11.13
2018-12-20T12:23:36.766Z,11.33
2018-12-20T12:26:04.592Z,7.20
2018-12-20T13:15:02.691Z,6.67
2018-12-20T13:57:11.925Z,6.40
2018-12-20T14:05:24.840Z,6.50
2018-12-20T14:07:48.000Z,12.03
2018-12-20T14:12:09.017Z,7.77
2018-12-20T14:17:00.616Z,5.30
2018-12-20T14:19:40.875Z,5.67
2018-12-20T14:23:37.067Z,11.20
2018-12-20T14:27:19.067Z,10.20
2018-12-20T14:29:33.573Z,15.80
2018-12-20T14:31:40.974Z,5.73
2018-12-20T14:33:47.410Z,11.07
2018-12-20T14:36:01.889Z,12.77
2018-12-20T14:38:13.108Z,8.17
2018-12-20T14:40:18.307Z,7.73
2018-12-20T14:42:21.797Z,8.73
2018-12-20T14:44:25.069Z,9.93
2018-12-20T14:46:47.189Z,5.90
2018-12-20T14:49:18.698Z,8.60
2018-12-20T14:54:04.906Z,10.37
2018-12-20T14:56:33.068Z,7.90
2018-12-20T14:58:53.123Z,5.13
2018-12-20T15:01:31.761Z,5.30
2018-12-20T15:04:03.540Z,10.17
2018-12-20T15:09:33.115Z,10.73
2018-12-20T15:11:52.955Z,12.53
2018-12-20T15:14:04.440Z,6.00
2018-12-20T15:16:48.370Z,11.83
2018-12-20T15:23:22.002Z,11.27
2018-12-20T15:38:42.540Z,10.23
2018-12-20T15:45:21.451Z,5.87
2018-12-20T15:47:40.496Z,12.57
2018-12-20T15:52:06.171Z,18.73
2018-12-20T15:54:17.924Z,6.10
2018-12-20T15:56:35.777Z,16.87
2018-12-20T16:01:56.411Z,9.63
2018-12-20T16:13:32.930Z,10.03
2018-12-20T16:15:53.573Z,14.37
2018-12-20T16:18:29.759Z,5.97
2018-12-20T16:20:57.398Z,16.90
2018-12-20T16:49:13.813Z,17.77
2018-12-20T16:53:49.360Z,25.43
2018-12-20T17:06:58.866Z,25.83
2018-12-20T17:10:23.269Z,19.67
2018-12-20T17:15:32.960Z,31.33
2018-12-20T17:17:46.152Z,30.20
2018-12-20T17:19:54.032Z,22.00
2018-12-20T17:22:03.501Z,20.93
2018-12-20T17:24:21.390Z,26.60
2018-12-20T17:26:39.710Z,29.97
2018-12-20T17:28:46.227Z,28.57
2018-12-20T17:30:57.543Z,25.93
2018-12-20T17:33:02.608Z,30.77
2018-12-20T17:35:06.643Z,28.77
2018-12-20T17:37:10.940Z,22.93
2018-12-20T17:39:15.907Z,42.07
2018-12-20T17:41:19.886Z,29.37
2018-12-20T17:43:23.542Z,32.60
2018-12-20T17:45:36.942Z,41.33
2018-12-20T17:47:42.130Z,40.10
2018-12-20T17:49:50.479Z,29.40
2018-12-20T17:52:19.524Z,35.57
2018-12-20T17:56:57.376Z,35.80
2018-12-20T17:59:05.019Z,32.47
2018-12-20T18:01:19.927Z,34.47
2018-12-20T18:03:28.455Z,23.90
2018-12-20T18:05:36.935Z,27.37
2018-12-20T18:07:42.351Z,28.10
2018-12-20T18:09:58.079Z,39.70
2018-12-20T18:12:05.549Z,39.77
2018-12-20T18:14:17.875Z,30.03
2018-12-20T18:16:26.642Z,30.43
2018-12-20T18:18:37.799Z,24.40
2018-12-20T18:20:53.643Z,30.57
2018-12-20T18:23:09.706Z,28.57
2018-12-20T18:25:24.454Z,24.27
2018-12-20T18:27:42.480Z,35.33
2018-12-20T18:32:36.395Z,30.80
2018-12-20T18:35:01.718Z,23.87
2018-12-20T18:37:23.928Z,38.57
2018-12-20T18:39:32.281Z,35.07
2018-12-20T18:41:42.136Z,36.40
2018-12-20T18:43:51.853Z,35.60
2018-12-20T18:46:12.022Z,33.67
2018-12-20T18:48:19.936Z,29.77
2018-12-20T18:50:28.074Z,26.37
2018-12-20T18:52:34.429Z,31.87
2018-12-20T18:54:39.167Z,40.33
2018-12-20T18:56:42.625Z,44.10
2018-12-20T19:40:21.608Z,34.73
2018-12-20T19:42:28.214Z,31.73
2018-12-20T19:44:46.583Z,34.03
2018-12-20T19:46:57.650Z,31.23
2018-12-20T19:49:04.653Z,40.37
2018-12-20T19:51:20.306Z,27.63
2018-12-20T19:53:40.190Z,23.87
2018-12-20T19:55:43.612Z,33.00
2018-12-20T19:57:59.774Z,29.87
2018-12-20T20:00:17.332Z,27.93
2018-12-20T20:02:21.595Z,26.87
2018-12-20T20:04:24.809Z,38.07
2018-12-20T20:06:38.255Z,25.97
2018-12-20T20:11:31.385Z,27.67
2018-12-20T20:13:34.712Z,24.77
2018-12-20T20:15:39.969Z,36.77
2018-12-20T20:17:43.227Z,38.20
2018-12-20T20:19:47.439Z,48.63
2018-12-20T20:24:45.885Z,28.73
2018-12-20T20:27:00.169Z,28.20
2018-12-20T20:29:26.522Z,34.80
2018-12-20T20:42:34.127Z,29.23
2018-12-20T20:47:39.511Z,25.13
2018-12-20T20:50:22.709Z,37.00
2018-12-20T20:52:30.905Z,42.63
2018-12-20T20:54:35.245Z,25.93
2018-12-20T20:56:39.022Z,20.70
2018-12-20T20:59:02.668Z,31.13
2018-12-20T21:01:08.119Z,24.30
2018-12-20T21:03:30.655Z,34.80
2018-12-20T21:05:44.566Z,29.70
2018-12-20T21:07:54.024Z,37.87
2018-12-20T21:10:04.322Z,34.70
2018-12-20T21:12:22.774Z,34.83
2018-12-20T21:14:26.671Z,26.23
2018-12-20T21:16:46.475Z,21.83
2018-12-20T21:18:58.659Z,28.67
2018-12-20T21:21:10.074Z,26.03
2018-12-20T21:24:08.968Z,34.57
2018-12-20T21:32:24.869Z,23.33
2018-12-20T21:45:45.395Z,24.33
2018-12-20T21:48:29.345Z,28.53
2018-12-20T21:50:54.202Z,26.83
2018-12-20T21:53:09.932Z,26.97
2018-12-20T21:58:42.552Z,20.93
2018-12-20T22:00:59.927Z,24.70
2018-12-20T22:03:14.061Z,21.93
2018-12-20T22:05:22.274Z,24.50
2018-12-20T22:07:33.355Z,26.17
2018-12-20T22:10:15.641Z,25.57
2018-12-20T22:12:33.948Z,28.67
2018-12-20T22:14:51.387Z,23.00
2018-12-20T22:17:06.907Z,34.83
2018-12-20T22:19:41.343Z,23.17
2018-12-20T22:22:11.399Z,39.23
2018-12-20T22:24:37.207Z,34.27
2018-12-20T23:02:01.301Z,21.50
2018-12-20T23:09:56.260Z,22.00
2018-12-20T23:29:22.692Z,21.53
2018-12-20T23:31:56.363Z,23.43
2018-12-20T23:37:35.091Z,18.17
2018-12-20T23:39:38.365Z,23.73
2018-12-20T23:41:51.140Z,27.33
2018-12-20T23:43:57.494Z,30.13
2018-12-20T23:46:00.606Z,22.47
2018-12-20T23:48:03.830Z,16.13
2018-12-20T23:50:07.109Z,22.63
2018-12-20T23:52:10.214Z,23.60
2018-12-20T23:54:13.297Z,21.67
2018-12-20T23:56:16.485Z,18.00
2018-12-20T23:58:19.658Z,16.33
